createdAt,value
2022-09-28T00:00:20.749Z,100.00
2022-09-28T00:01:29.007Z,100.00
2022-09-28T00:02:37.070Z,100.00
2022-09-28T00:03:40.563Z,100.00
2022-09-28T00:04:43.357Z,100.00
2022-09-28T00:05:46.007Z,100.00
2022-09-28T00:06:50.128Z,100.00
2022-09-28T00:07:55.646Z,100.00
2022-09-28T00:09:00.074Z,100.00
2022-09-28T00:10:04.309Z,100.00
2022-09-28T00:11:08.763Z,100.00
2022-09-28T00:12:12.049Z,100.00
2022-09-28T00:13:15.260Z,100.00
2022-09-28T00:14:18.526Z,100.00
2022-09-28T00:15:21.624Z,100.00
2022-09-28T00:16:26.249Z,100.00
2022-09-28T00:17:29.566Z,100.00
2022-09-28T00:18:32.768Z,100.00
2022-09-28T00:19:37.294Z,100.00
2022-09-28T00:20:40.718Z,100.00
2022-09-28T00:21:45.507Z,100.00
2022-09-28T00:22:48.761Z,100.00
2022-09-28T00:24:10.543Z,100.00
2022-09-28T00:25:16.720Z,100.00
2022-09-28T00:26:22.910Z,100.00
2022-09-28T00:27:26.708Z,100.00
2022-09-28T00:28:30.306Z,100.00
2022-09-28T00:29:37.395Z,100.00
2022-09-28T00:30:40.802Z,100.00
2022-09-28T00:31:44.645Z,100.00
2022-09-28T00:32:47.931Z,100.00
2022-09-28T00:33:56.830Z,100.00
2022-09-28T00:35:00.856Z,100.00
2022-09-28T00:36:03.208Z,100.00
2022-09-28T00:37:08.378Z,100.00
2022-09-28T00:38:11.890Z,100.00
2022-09-28T00:39:16.528Z,100.00
2022-09-28T00:40:19.978Z,100.00
2022-09-28T00:41:27.731Z,100.00
2022-09-28T00:42:31.225Z,100.00
2022-09-28T00:43:35.253Z,100.00
2022-09-28T00:44:40.436Z,100.00
2022-09-28T00:45:45.064Z,100.00
2022-09-28T00:46:55.053Z,100.00
2022-09-28T00:47:59.509Z,100.00
2022-09-28T00:49:04.999Z,100.00
2022-09-28T00:50:22.299Z,100.00
2022-09-28T00:51:28.246Z,100.00
2022-09-28T00:52:36.623Z,100.00
2022-09-28T00:53:42.623Z,100.00
2022-09-28T00:54:49.210Z,100.00
2022-09-28T00:55:56.129Z,100.00
2022-09-28T00:57:01.599Z,100.00
2022-09-28T00:58:07.621Z,100.00
2022-09-28T00:59:11.647Z,100.00
2022-09-28T01:00:15.780Z,100.00
2022-09-28T01:01:20.364Z,100.00
2022-09-28T01:02:23.655Z,100.00
2022-09-28T01:03:30.147Z,100.00
2022-09-28T01:05:40.256Z,100.00
2022-09-28T01:06:46.002Z,100.00
2022-09-28T01:07:49.923Z,100.00
2022-09-28T01:08:54.342Z,100.00
2022-09-28T01:09:58.083Z,100.00
2022-09-28T01:11:01.686Z,100.00
2022-09-28T01:12:05.185Z,100.00
2022-09-28T01:13:17.057Z,100.00
2022-09-28T01:14:20.864Z,100.00
2022-09-28T01:15:27.234Z,100.00
2022-09-28T01:16:33.924Z,100.00
2022-09-28T01:17:44.867Z,100.00
2022-09-28T01:19:08.412Z,100.00
2022-09-28T01:20:12.544Z,100.00
2022-09-28T01:21:23.882Z,100.00
2022-09-28T01:22:28.755Z,100.00
2022-09-28T01:23:39.562Z,100.00
2022-09-28T01:24:47.778Z,100.00
2022-09-28T01:25:53.306Z,100.00
2022-09-28T01:27:01.198Z,100.00
2022-09-28T01:28:08.842Z,100.00
2022-09-28T01:29:14.942Z,100.00
2022-09-28T01:30:20.762Z,100.00
2022-09-28T01:31:29.409Z,100.00
2022-09-28T01:32:37.798Z,100.00
2022-09-28T01:33:42.040Z,100.00
2022-09-28T01:35:05.387Z,100.00
2022-09-28T01:36:10.671Z,100.00
2022-09-28T01:37:16.770Z,100.00
2022-09-28T01:38:25.022Z,100.00
2022-09-28T01:39:33.389Z,100.00
2022-09-28T01:40:38.290Z,100.00
2022-09-28T01:41:47.319Z,100.00
2022-09-28T01:42:52.575Z,100.00
2022-09-28T01:43:58.855Z,100.00
2022-09-28T01:45:04.084Z,100.00
2022-09-28T01:46:14.734Z,100.00
2022-09-28T01:47:21.112Z,100.00
2022-09-28T01:48:43.628Z,100.00
2022-09-28T01:49:59.674Z,100.00
2022-09-28T01:51:04.853Z,100.00
2022-09-28T01:52:28.725Z,100.00
2022-09-28T01:53:40.940Z,100.00
2022-09-28T01:54:49.601Z,100.00
2022-09-28T01:55:58.811Z,100.00
2022-09-28T01:57:04.251Z,100.00
2022-09-28T01:58:11.204Z,100.00
2022-09-28T01:59:21.715Z,100.00
2022-09-28T02:00:27.027Z,100.00
2022-09-28T02:01:33.635Z,100.00
2022-09-28T02:02:41.217Z,100.00
2022-09-28T02:03:48.583Z,100.00
2022-09-28T02:04:52.922Z,100.00
2022-09-28T02:05:58.205Z,100.00
2022-09-28T02:07:06.618Z,100.00
2022-09-28T02:08:12.021Z,100.00
2022-09-28T02:09:17.377Z,100.00
2022-09-28T02:10:25.651Z,100.00
2022-09-28T02:11:30.653Z,100.00
2022-09-28T02:12:37.972Z,100.00
2022-09-28T02:13:44.332Z,100.00
2022-09-28T02:14:51.007Z,100.00
2022-09-28T02:15:57.197Z,100.00
2022-09-28T02:17:01.644Z,100.00
2022-09-28T02:18:05.795Z,100.00
2022-09-28T02:19:11.586Z,100.00
2022-09-28T02:20:15.901Z,100.00
2022-09-28T02:21:24.047Z,100.00
2022-09-28T02:22:30.155Z,100.00
2022-09-28T02:23:34.699Z,100.00
2022-09-28T02:24:39.672Z,100.00
2022-09-28T02:25:46.194Z,100.00
2022-09-28T02:26:51.842Z,100.00
2022-09-28T02:28:01.238Z,100.00
2022-09-28T02:29:05.495Z,100.00
2022-09-28T02:30:09.347Z,100.00
2022-09-28T02:31:14.357Z,100.00
2022-09-28T02:32:19.248Z,100.00
2022-09-28T02:33:24.878Z,100.00
2022-09-28T02:34:28.333Z,100.00
2022-09-28T02:35:30.805Z,100.00
2022-09-28T02:36:35.344Z,100.00
2022-09-28T02:37:39.414Z,100.00
2022-09-28T02:38:42.573Z,100.00
2022-09-28T02:39:47.721Z,100.00
2022-09-28T02:40:53.887Z,100.00
2022-09-28T02:42:04.370Z,100.00
2022-09-28T02:43:15.384Z,100.00
2022-09-28T02:44:21.191Z,100.00
2022-09-28T02:45:31.195Z,100.00
2022-09-28T02:46:48.250Z,100.00
2022-09-28T02:48:02.248Z,100.00
2022-09-28T02:49:21.531Z,100.00
2022-09-28T02:50:22.487Z,100.00
2022-09-28T02:51:35.102Z,100.00
2022-09-28T02:52:43.312Z,100.00
2022-09-28T02:53:49.390Z,100.00
2022-09-28T02:55:01.782Z,100.00
2022-09-28T02:56:21.766Z,100.00
2022-09-28T02:57:27.176Z,100.00
2022-09-28T02:58:54.275Z,100.00
2022-09-28T03:00:03.427Z,100.00
2022-09-28T03:01:11.464Z,100.00
2022-09-28T03:02:16.869Z,100.00
2022-09-28T03:03:39.218Z,100.00
2022-09-28T03:04:44.388Z,100.00
2022-09-28T03:06:00.845Z,100.00
2022-09-28T03:07:14.695Z,100.00
2022-09-28T03:08:22.058Z,100.00
2022-09-28T03:09:29.952Z,100.00
2022-09-28T03:10:35.231Z,100.00
2022-09-28T03:11:39.467Z,100.00
2022-09-28T03:12:46.012Z,100.00
2022-09-28T03:13:52.221Z,100.00
2022-09-28T03:15:17.600Z,100.00
2022-09-28T03:16:21.366Z,100.00
2022-09-28T03:17:25.611Z,100.00
2022-09-28T03:18:28.433Z,100.00
2022-09-28T03:19:35.129Z,100.00
2022-09-28T03:20:38.438Z,100.00
2022-09-28T03:21:45.568Z,100.00
2022-09-28T03:23:12.339Z,100.00
2022-09-28T03:23:54.161Z,100.00
2022-09-28T03:24:58.294Z,100.00
2022-09-28T03:26:01.706Z,100.00
2022-09-28T03:27:06.422Z,100.00
2022-09-28T03:28:09.589Z,100.00
2022-09-28T03:29:14.742Z,100.00
2022-09-28T03:30:19.162Z,100.00
2022-09-28T03:31:23.532Z,100.00
2022-09-28T03:32:26.494Z,100.00
2022-09-28T03:33:28.852Z,100.00
2022-09-28T03:34:32.144Z,100.00
2022-09-28T03:35:35.560Z,100.00
2022-09-28T03:36:38.351Z,100.00
2022-09-28T03:37:43.742Z,100.00
2022-09-28T03:38:48.076Z,100.00
2022-09-28T03:39:52.282Z,100.00
2022-09-28T03:40:56.851Z,100.00
2022-09-28T03:42:00.441Z,100.00
2022-09-28T03:43:03.632Z,100.00
2022-09-28T03:44:07.347Z,100.00
2022-09-28T03:45:10.331Z,100.00
2022-09-28T03:46:13.113Z,100.00
2022-09-28T03:47:18.571Z,100.00
2022-09-28T03:48:28.682Z,100.00
2022-09-28T03:49:30.093Z,100.00
2022-09-28T03:50:33.807Z,100.00
2022-09-28T03:51:38.563Z,100.00
2022-09-28T03:52:43.428Z,100.00
2022-09-28T03:53:47.445Z,100.00
2022-09-28T03:54:50.638Z,100.00
2022-09-28T03:55:54.468Z,100.00
2022-09-28T03:56:57.762Z,100.00
2022-09-28T03:58:00.108Z,100.00
2022-09-28T03:59:05.075Z,100.00
2022-09-28T04:00:09.975Z,100.00
2022-09-28T04:01:19.157Z,100.00
2022-09-28T04:02:26.121Z,100.00
2022-09-28T04:03:29.433Z,100.00
2022-09-28T04:04:32.940Z,100.00
2022-09-28T04:05:36.349Z,100.00
2022-09-28T04:06:39.845Z,100.00
2022-09-28T04:07:42.733Z,100.00
2022-09-28T04:08:47.795Z,100.00
2022-09-28T04:09:53.944Z,100.00
2022-09-28T04:10:58.473Z,100.00
2022-09-28T04:12:04.349Z,100.00
2022-09-28T04:13:10.070Z,100.00
2022-09-28T04:14:14.418Z,100.00
2022-09-28T04:15:18.687Z,100.00
2022-09-28T04:16:22.624Z,100.00
2022-09-28T04:17:27.886Z,100.00
2022-09-28T04:18:35.345Z,100.00
2022-09-28T04:19:52.490Z,100.00
2022-09-28T04:21:03.995Z,100.00
2022-09-28T04:22:13.814Z,100.00
2022-09-28T04:23:17.028Z,100.00
2022-09-28T04:24:20.638Z,100.00
2022-09-28T04:25:24.341Z,100.00
2022-09-28T04:26:28.174Z,100.00
2022-09-28T04:27:52.075Z,100.00
2022-09-28T04:29:15.183Z,100.00
2022-09-28T04:30:21.614Z,100.00
2022-09-28T04:31:25.115Z,100.00
2022-09-28T04:32:27.580Z,100.00
2022-09-28T04:33:33.035Z,100.00
2022-09-28T04:34:39.612Z,100.00
2022-09-28T04:35:41.959Z,100.00
2022-09-28T04:36:46.403Z,100.00
2022-09-28T04:37:49.587Z,100.00
2022-09-28T04:38:53.600Z,100.00
2022-09-28T04:39:59.215Z,100.00
2022-09-28T04:41:03.930Z,100.00
2022-09-28T04:42:10.394Z,100.00
2022-09-28T04:43:15.476Z,100.00
2022-09-28T04:44:18.249Z,100.00
2022-09-28T04:45:23.728Z,100.00
2022-09-28T04:46:28.500Z,100.00
2022-09-28T04:47:38.156Z,100.00
2022-09-28T04:48:46.893Z,100.00
2022-09-28T04:49:51.954Z,100.00
2022-09-28T04:50:57.338Z,100.00
2022-09-28T04:52:00.228Z,100.00
2022-09-28T04:53:04.021Z,100.00
2022-09-28T04:54:07.549Z,100.00
2022-09-28T04:55:13.738Z,100.00
2022-09-28T04:56:18.246Z,100.00
2022-09-28T04:57:21.498Z,100.00
2022-09-28T04:58:24.938Z,100.00
2022-09-28T04:59:31.609Z,100.00
2022-09-28T05:00:38.962Z,100.00
2022-09-28T05:01:56.312Z,100.00
2022-09-28T05:03:18.402Z,100.00
2022-09-28T05:04:39.674Z,100.00
2022-09-28T05:05:45.895Z,100.00
2022-09-28T05:07:06.623Z,100.00
2022-09-28T05:08:11.745Z,100.00
2022-09-28T05:09:18.628Z,100.00
2022-09-28T05:10:23.000Z,100.00
2022-09-28T05:11:27.641Z,100.00
2022-09-28T05:12:31.670Z,100.00
2022-09-28T05:13:41.033Z,100.00
2022-09-28T05:14:44.048Z,100.00
2022-09-28T05:15:48.034Z,100.00
2022-09-28T05:16:52.115Z,100.00
2022-09-28T05:18:00.210Z,100.00
2022-09-28T05:19:09.347Z,100.00
2022-09-28T05:20:13.751Z,100.00
2022-09-28T05:21:21.444Z,100.00
2022-09-28T05:22:24.950Z,100.00
2022-09-28T05:23:28.443Z,100.00
2022-09-28T05:24:33.306Z,100.00
2022-09-28T05:25:36.824Z,100.00
2022-09-28T05:26:44.703Z,100.00
2022-09-28T05:27:51.390Z,100.00
2022-09-28T05:29:02.263Z,100.00
2022-09-28T05:30:20.007Z,100.00
2022-09-28T05:31:25.280Z,100.00
2022-09-28T05:32:49.774Z,100.00
2022-09-28T05:34:00.997Z,100.00
2022-09-28T05:35:06.847Z,100.00
2022-09-28T05:37:24.872Z,100.00
2022-09-28T05:38:29.945Z,100.00
2022-09-28T05:39:33.449Z,100.00
2022-09-28T05:40:39.092Z,100.00
2022-09-28T05:41:42.451Z,100.00
2022-09-28T05:42:46.062Z,100.00
2022-09-28T05:43:53.186Z,100.00
2022-09-28T05:44:58.887Z,100.00
2022-09-28T05:46:02.370Z,100.00
2022-09-28T05:47:04.889Z,99.75
2022-09-28T05:48:08.797Z,99.79
2022-09-28T05:49:12.164Z,99.43
2022-09-28T05:50:16.248Z,99.69
2022-09-28T05:51:19.051Z,100.00
2022-09-28T05:52:23.797Z,99.92
2022-09-28T05:53:26.996Z,100.00
2022-09-28T05:54:30.464Z,99.62
2022-09-28T05:55:34.910Z,98.53
2022-09-28T05:56:37.911Z,98.09
2022-09-28T05:57:43.175Z,98.54
2022-09-28T05:58:47.408Z,98.38
2022-09-28T05:59:51.646Z,99.58
2022-09-28T06:00:56.350Z,100.00
2022-09-28T06:01:58.796Z,99.91
2022-09-28T06:03:08.670Z,99.71
2022-09-28T06:04:11.203Z,99.87
2022-09-28T06:05:15.475Z,100.00
2022-09-28T06:06:21.035Z,100.00
2022-09-28T06:07:24.953Z,99.14
2022-09-28T06:08:27.926Z,98.27
2022-09-28T06:09:33.468Z,97.54
2022-09-28T06:10:43.043Z,97.32
2022-09-28T06:11:46.493Z,98.33
2022-09-28T06:12:56.057Z,98.83
2022-09-28T06:14:00.098Z,98.51
2022-09-28T06:15:07.683Z,98.04
2022-09-28T06:16:12.769Z,96.46
2022-09-28T06:17:17.794Z,96.34
2022-09-28T06:18:23.087Z,97.10
2022-09-28T06:19:43.257Z,95.39
2022-09-28T06:21:03.519Z,94.56
2022-09-28T06:22:09.458Z,96.26
2022-09-28T06:23:19.304Z,96.68
2022-09-28T06:24:22.692Z,96.14
2022-09-28T06:25:31.566Z,96.40
2022-09-28T06:26:35.135Z,96.41
2022-09-28T06:27:39.997Z,97.23
2022-09-28T06:28:44.442Z,97.39
2022-09-28T06:29:47.842Z,96.44
2022-09-28T06:30:51.404Z,95.24
2022-09-28T06:31:55.279Z,95.65
2022-09-28T06:32:59.923Z,95.36
2022-09-28T06:34:04.308Z,94.93
2022-09-28T06:35:09.252Z,94.18
2022-09-28T06:36:12.644Z,94.89
2022-09-28T06:37:16.044Z,96.38
2022-09-28T06:38:18.911Z,96.38
2022-09-28T06:39:22.637Z,93.98
2022-09-28T06:40:29.016Z,92.87
2022-09-28T06:41:34.660Z,92.24
2022-09-28T06:42:41.705Z,93.20
2022-09-28T06:43:50.223Z,93.43
2022-09-28T06:45:12.006Z,94.73
2022-09-28T06:46:33.065Z,95.79
2022-09-28T06:47:59.589Z,96.49
2022-09-28T06:49:16.099Z,94.81
2022-09-28T06:50:34.649Z,94.52
2022-09-28T06:51:56.757Z,94.24
2022-09-28T06:53:09.248Z,93.54
2022-09-28T06:54:26.838Z,94.24
2022-09-28T06:55:33.079Z,93.63
2022-09-28T06:56:37.326Z,94.30
2022-09-28T06:57:40.583Z,92.84
2022-09-28T06:58:44.003Z,93.16
2022-09-28T06:59:48.334Z,94.67
2022-09-28T07:00:58.380Z,95.91
2022-09-28T07:02:02.495Z,94.72
2022-09-28T07:03:26.944Z,97.42
2022-09-28T07:04:38.179Z,95.18
2022-09-28T07:05:45.144Z,96.43
2022-09-28T07:07:09.350Z,97.46
2022-09-28T07:08:33.094Z,96.30
2022-09-28T07:09:45.010Z,96.84
2022-09-28T07:11:01.924Z,97.05
2022-09-28T07:12:08.962Z,96.16
2022-09-28T07:13:43.350Z,95.85
2022-09-28T07:14:44.974Z,95.36
2022-09-28T07:15:30.787Z,94.64
2022-09-28T07:17:00.722Z,94.98
2022-09-28T07:17:54.484Z,94.75
2022-09-28T07:18:45.374Z,94.20
2022-09-28T07:19:54.717Z,93.77
2022-09-28T07:20:58.791Z,93.74
2022-09-28T07:22:05.569Z,94.76
2022-09-28T07:23:18.970Z,93.12
2022-09-28T07:24:35.802Z,92.69
2022-09-28T07:25:59.793Z,91.97
2022-09-28T07:27:07.964Z,90.75
2022-09-28T07:28:13.473Z,90.23
2022-09-28T07:29:21.563Z,89.60
2022-09-28T07:30:37.204Z,87.79
2022-09-28T07:31:44.889Z,86.55
2022-09-28T07:32:50.010Z,87.10
2022-09-28T07:34:08.066Z,86.27
2022-09-28T07:35:16.628Z,85.64
2022-09-28T07:36:30.857Z,86.73
2022-09-28T07:37:36.233Z,87.47
2022-09-28T07:38:39.852Z,86.58
2022-09-28T07:40:01.012Z,87.39
2022-09-28T07:41:13.748Z,86.80
2022-09-28T07:42:18.883Z,88.47
2022-09-28T07:43:23.107Z,88.07
2022-09-28T07:44:30.278Z,86.22
2022-09-28T07:45:40.077Z,87.08
2022-09-28T07:46:44.277Z,84.61
2022-09-28T07:47:49.672Z,86.23
2022-09-28T07:49:09.828Z,85.46
2022-09-28T07:50:31.765Z,85.95
2022-09-28T07:51:36.943Z,84.50
2022-09-28T07:52:58.202Z,83.73
2022-09-28T07:54:08.103Z,83.74
2022-09-28T07:55:15.249Z,82.91
2022-09-28T07:56:21.163Z,82.49
2022-09-28T07:57:28.727Z,82.64
2022-09-28T07:58:50.508Z,83.75
2022-09-28T07:59:55.580Z,84.38
2022-09-28T08:01:06.263Z,83.80
2022-09-28T08:02:11.292Z,82.90
2022-09-28T08:03:19.467Z,83.86
2022-09-28T08:04:26.875Z,83.52
2022-09-28T08:05:32.954Z,78.78
2022-09-28T08:06:36.037Z,79.69
2022-09-28T08:07:41.632Z,77.56
2022-09-28T08:08:47.130Z,77.96
2022-09-28T08:09:52.622Z,78.86
2022-09-28T08:11:08.649Z,78.16
2022-09-28T08:12:19.468Z,79.76
2022-09-28T08:13:30.622Z,81.85
2022-09-28T08:14:36.901Z,80.28
2022-09-28T08:15:50.870Z,79.73
2022-09-28T08:16:58.762Z,80.33
2022-09-28T08:18:04.888Z,79.28
2022-09-28T08:19:09.693Z,75.76
2022-09-28T08:20:31.325Z,75.54
2022-09-28T08:21:48.190Z,75.27
2022-09-28T08:22:50.562Z,74.29
2022-09-28T08:23:54.678Z,74.85
2022-09-28T08:24:57.985Z,74.08
2022-09-28T08:26:02.429Z,73.80
2022-09-28T08:27:05.934Z,72.44
2022-09-28T08:28:11.040Z,72.38
2022-09-28T08:29:16.394Z,74.85
2022-09-28T08:30:27.963Z,74.41
2022-09-28T08:31:50.348Z,75.29
2022-09-28T08:34:11.553Z,69.91
2022-09-28T08:35:33.349Z,70.58
2022-09-28T08:36:44.927Z,68.34
2022-09-28T08:38:07.826Z,71.13
2022-09-28T08:39:28.776Z,70.77
2022-09-28T08:40:36.002Z,71.54
2022-09-28T08:41:53.321Z,70.85
2022-09-28T08:43:03.835Z,69.67
2022-09-28T08:44:26.959Z,72.10
2022-09-28T08:45:37.282Z,70.04
2022-09-28T08:46:50.749Z,70.47
2022-09-28T08:48:34.100Z,70.56
2022-09-28T08:49:50.970Z,68.92
2022-09-28T08:51:00.062Z,69.55
2022-09-28T08:52:18.143Z,67.71
2022-09-28T08:53:40.867Z,67.00
2022-09-28T08:55:02.645Z,67.89
2022-09-28T08:56:18.158Z,68.19
2022-09-28T08:57:25.963Z,69.99
2022-09-28T08:58:31.237Z,70.23
2022-09-28T08:59:41.625Z,72.54
2022-09-28T09:00:50.210Z,71.92
2022-09-28T09:01:57.975Z,68.02
2022-09-28T09:03:08.120Z,67.92
2022-09-28T09:04:13.291Z,67.69
2022-09-28T09:05:41.319Z,68.61
2022-09-28T09:06:45.791Z,69.15
2022-09-28T09:08:12.484Z,68.34
2022-09-28T09:09:19.355Z,67.55
2022-09-28T09:10:26.925Z,70.41
2022-09-28T09:11:38.859Z,69.53
2022-09-28T09:13:03.402Z,70.26
2022-09-28T09:14:13.825Z,70.25
2022-09-28T09:15:24.778Z,70.14
2022-09-28T09:16:32.748Z,70.83
2022-09-28T09:17:44.355Z,71.18
2022-09-28T09:19:08.119Z,67.02
2022-09-28T09:20:20.958Z,66.92
2022-09-28T09:21:41.442Z,66.46
2022-09-28T09:22:55.914Z,67.76
2022-09-28T09:24:02.353Z,66.79
2022-09-28T09:25:18.811Z,67.05
2022-09-28T09:26:26.105Z,67.37
2022-09-28T09:27:31.553Z,69.06
2022-09-28T09:28:55.322Z,68.57
2022-09-28T09:30:05.419Z,67.21
2022-09-28T09:31:12.331Z,65.92
2022-09-28T09:32:24.334Z,66.00
2022-09-28T09:33:49.252Z,68.26
2022-09-28T09:35:14.576Z,65.45
2022-09-28T09:37:58.497Z,60.01
2022-09-28T09:39:41.871Z,58.64
2022-09-28T09:42:41.137Z,58.09
2022-09-28T09:44:04.874Z,58.35
2022-09-28T09:45:29.896Z,59.29
2022-09-28T09:46:35.895Z,58.15
2022-09-28T09:47:43.920Z,58.41
2022-09-28T09:49:08.820Z,58.84
2022-09-28T09:50:20.773Z,59.01
2022-09-28T09:51:30.212Z,57.76
2022-09-28T09:52:38.780Z,58.97
2022-09-28T09:53:45.863Z,59.79
2022-09-28T09:54:56.836Z,61.31
2022-09-28T09:56:24.894Z,60.19
2022-09-28T09:57:34.561Z,61.07
2022-09-28T09:58:40.891Z,61.62
2022-09-28T09:59:52.527Z,61.20
2022-09-28T10:01:05.402Z,60.04
2022-09-28T10:02:12.654Z,61.87
2022-09-28T10:03:21.747Z,62.85
2022-09-28T10:04:30.222Z,63.36
2022-09-28T10:05:37.252Z,61.13
2022-09-28T10:06:45.195Z,62.17
2022-09-28T10:07:53.725Z,62.98
2022-09-28T10:08:59.362Z,63.57
2022-09-28T10:10:03.762Z,62.80
2022-09-28T10:11:14.094Z,61.80
2022-09-28T10:12:20.594Z,63.51
2022-09-28T10:13:24.220Z,64.51
2022-09-28T10:14:31.972Z,63.77
2022-09-28T10:15:38.016Z,63.20
2022-09-28T10:16:45.666Z,64.14
2022-09-28T10:17:53.393Z,63.42
2022-09-28T10:19:18.239Z,63.57
2022-09-28T10:20:40.286Z,63.26
2022-09-28T10:21:50.997Z,64.86
2022-09-28T10:23:02.514Z,64.04
2022-09-28T10:24:08.051Z,64.85
2022-09-28T10:25:13.095Z,64.72
2022-09-28T10:26:26.514Z,65.31
2022-09-28T10:27:34.948Z,66.59
2022-09-28T10:28:42.563Z,67.12
2022-09-28T10:29:49.271Z,66.55
2022-09-28T10:30:53.808Z,67.74
2022-09-28T10:31:57.012Z,68.58
2022-09-28T10:33:03.230Z,67.87
2022-09-28T10:34:13.612Z,69.40
2022-09-28T10:35:19.538Z,68.54
2022-09-28T10:36:27.836Z,68.81
2022-09-28T10:37:31.351Z,70.60
2022-09-28T10:38:45.409Z,69.79
2022-09-28T10:39:57.291Z,69.90
2022-09-28T10:41:03.923Z,69.59
2022-09-28T10:42:17.540Z,69.99
2022-09-28T10:43:33.854Z,68.79
2022-09-28T10:44:39.686Z,68.50
2022-09-28T10:45:52.633Z,70.03
2022-09-28T10:46:58.809Z,69.87
2022-09-28T10:48:04.936Z,68.90
2022-09-28T10:49:19.043Z,68.87
2022-09-28T10:50:27.959Z,68.07
2022-09-28T10:51:54.927Z,68.51
2022-09-28T10:53:14.211Z,70.46
2022-09-28T10:54:38.494Z,70.33
2022-09-28T10:55:42.397Z,70.64
2022-09-28T10:56:48.153Z,69.40
2022-09-28T10:57:52.982Z,69.87
2022-09-28T10:58:56.792Z,70.60
2022-09-28T11:00:03.334Z,71.03
2022-09-28T11:01:10.399Z,71.05
2022-09-28T11:02:18.098Z,70.40
2022-09-28T11:03:24.088Z,71.01
2022-09-28T11:04:32.904Z,68.86
2022-09-28T11:05:39.155Z,68.30
2022-09-28T11:06:44.317Z,69.41
2022-09-28T11:07:49.222Z,67.35
2022-09-28T11:08:56.548Z,66.66
2022-09-28T11:10:02.456Z,66.48
2022-09-28T11:11:09.522Z,66.06
2022-09-28T11:12:16.778Z,66.00
2022-09-28T11:13:20.281Z,66.19
2022-09-28T11:14:31.446Z,65.26
2022-09-28T11:15:35.336Z,66.08
2022-09-28T11:16:41.533Z,65.10
2022-09-28T11:17:46.931Z,64.73
2022-09-28T11:18:52.628Z,63.92
2022-09-28T11:19:57.281Z,66.45
2022-09-28T11:21:16.727Z,66.71
2022-09-28T11:22:26.245Z,67.06
2022-09-28T11:23:31.310Z,65.86
2022-09-28T11:24:37.007Z,65.94
2022-09-28T11:25:43.054Z,64.86
2022-09-28T11:26:49.430Z,63.60
2022-09-28T11:27:56.609Z,63.30
2022-09-28T11:28:58.744Z,64.89
2022-09-28T11:30:03.219Z,65.74
2022-09-28T11:31:07.789Z,65.24
2022-09-28T11:32:33.540Z,65.92
2022-09-28T11:35:12.672Z,67.61
2022-09-28T11:36:20.054Z,66.43
2022-09-28T11:37:33.994Z,67.43
2022-09-28T11:38:55.056Z,67.35
2022-09-28T11:40:06.395Z,67.93
2022-09-28T11:41:22.955Z,68.75
2022-09-28T11:42:29.270Z,69.47
2022-09-28T11:43:51.376Z,69.79
2022-09-28T11:44:59.372Z,69.00
2022-09-28T11:46:03.545Z,69.02
2022-09-28T11:47:11.489Z,69.38
2022-09-28T11:48:31.916Z,69.12
2022-09-28T11:49:44.517Z,68.74
2022-09-28T11:50:59.398Z,69.31
2022-09-28T11:52:04.274Z,67.71
2022-09-28T11:53:18.332Z,68.22
2022-09-28T11:54:30.644Z,68.52
2022-09-28T11:55:45.698Z,67.25
2022-09-28T11:56:51.180Z,68.56
2022-09-28T11:58:04.514Z,67.80
2022-09-28T11:59:27.022Z,67.91
2022-09-28T12:00:32.519Z,68.98
2022-09-28T12:01:38.771Z,69.26
2022-09-28T12:02:52.925Z,69.83
2022-09-28T12:04:01.011Z,69.98
2022-09-28T12:05:19.863Z,70.03
2022-09-28T12:06:21.894Z,70.68
2022-09-28T12:07:30.513Z,71.99
2022-09-28T12:08:37.477Z,71.50
2022-09-28T12:09:44.636Z,71.74
2022-09-28T12:10:54.864Z,71.72
2022-09-28T12:12:02.409Z,73.00
2022-09-28T12:13:21.473Z,72.62
2022-09-28T12:14:32.259Z,72.41
2022-09-28T12:16:06.878Z,72.73
2022-09-28T12:18:07.923Z,72.87
2022-09-28T12:19:15.640Z,72.42
2022-09-28T12:20:20.616Z,73.02
2022-09-28T12:21:37.279Z,73.82
2022-09-28T12:22:44.137Z,72.19
2022-09-28T12:23:49.337Z,73.90
2022-09-28T12:24:54.181Z,73.26
2022-09-28T12:26:02.893Z,73.60
2022-09-28T12:27:07.338Z,73.54
2022-09-28T12:28:16.076Z,74.84
2022-09-28T12:29:21.463Z,72.55
2022-09-28T12:30:26.429Z,74.41
2022-09-28T12:31:30.977Z,75.33
2022-09-28T12:32:38.973Z,74.38
2022-09-28T12:33:43.211Z,75.22
2022-09-28T12:34:46.497Z,73.18
2022-09-28T12:35:57.743Z,74.17
2022-09-28T12:37:10.425Z,72.50
2022-09-28T12:38:26.267Z,72.92
2022-09-28T12:39:56.530Z,72.12
2022-09-28T12:40:50.678Z,72.72
2022-09-28T12:41:56.523Z,71.65
2022-09-28T12:43:07.651Z,71.25
2022-09-28T12:44:17.841Z,70.99
2022-09-28T12:45:25.315Z,70.18
2022-09-28T12:46:39.013Z,70.00
2022-09-28T12:47:44.339Z,70.79
2022-09-28T12:49:24.113Z,70.42
2022-09-28T12:51:24.297Z,70.40
2022-09-28T12:52:46.504Z,69.76
2022-09-28T12:54:03.478Z,71.35
2022-09-28T12:55:18.366Z,71.76
2022-09-28T12:56:26.340Z,71.00
2022-09-28T12:57:48.876Z,70.20
2022-09-28T12:58:56.048Z,71.31
2022-09-28T13:00:02.372Z,71.23
2022-09-28T13:01:15.768Z,71.09
2022-09-28T13:02:25.204Z,71.77
2022-09-28T13:03:33.883Z,71.92
2022-09-28T13:04:44.625Z,72.62
2022-09-28T13:06:08.154Z,71.91
2022-09-28T13:07:15.941Z,71.68
2022-09-28T13:08:26.131Z,72.08
2022-09-28T13:09:33.120Z,72.58
2022-09-28T13:10:39.428Z,72.43
2022-09-28T13:11:50.433Z,70.72
2022-09-28T13:13:11.904Z,72.35
2022-09-28T13:14:34.318Z,70.78
2022-09-28T13:15:42.251Z,70.97
2022-09-28T13:16:48.522Z,72.93
2022-09-28T13:17:56.618Z,73.03
2022-09-28T13:19:01.589Z,72.42
2022-09-28T13:20:05.927Z,71.87
2022-09-28T13:21:11.013Z,71.93
2022-09-28T13:22:27.885Z,72.81
2022-09-28T13:23:36.195Z,73.67
2022-09-28T13:24:42.692Z,72.75
2022-09-28T13:25:50.619Z,74.41
2022-09-28T13:26:55.159Z,74.04
2022-09-28T13:28:02.954Z,74.31
2022-09-28T13:29:07.956Z,74.98
2022-09-28T13:30:14.971Z,73.30
2022-09-28T13:31:20.365Z,74.83
2022-09-28T13:32:28.739Z,75.19
2022-09-28T13:33:35.735Z,74.82
2022-09-28T13:34:39.748Z,74.26
2022-09-28T13:35:45.612Z,73.75
2022-09-28T13:37:07.960Z,74.33
2022-09-28T13:38:17.942Z,74.73
2022-09-28T13:39:34.519Z,75.30
2022-09-28T13:40:56.757Z,74.74
2022-09-28T13:42:00.741Z,74.17
2022-09-28T13:43:08.023Z,75.58
2022-09-28T13:44:18.242Z,75.53
2022-09-28T13:45:23.361Z,75.58
2022-09-28T13:46:46.296Z,75.54
2022-09-28T13:47:55.303Z,75.33
2022-09-28T13:48:59.827Z,75.07
2022-09-28T13:50:17.395Z,75.17
2022-09-28T13:51:25.403Z,75.07
2022-09-28T13:52:31.820Z,74.98
2022-09-28T13:53:40.584Z,74.55
2022-09-28T13:54:57.737Z,74.40
2022-09-28T13:56:17.535Z,74.64
2022-09-28T13:57:29.292Z,74.81
2022-09-28T13:58:42.094Z,74.18
2022-09-28T13:59:47.886Z,74.83
2022-09-28T14:00:53.271Z,75.29
2022-09-28T14:01:58.560Z,75.49
2022-09-28T14:03:21.669Z,75.72
2022-09-28T14:04:27.912Z,74.95
2022-09-28T14:05:37.798Z,75.09
2022-09-28T14:06:49.470Z,75.88
2022-09-28T14:08:00.074Z,75.67
2022-09-28T14:09:11.919Z,76.01
2022-09-28T14:10:25.700Z,76.02
2022-09-28T14:11:38.555Z,76.63
2022-09-28T14:12:47.386Z,77.69
2022-09-28T14:14:01.602Z,76.94
2022-09-28T14:15:07.768Z,77.49
2022-09-28T14:16:21.539Z,77.19
2022-09-28T14:17:28.041Z,76.91
2022-09-28T14:18:34.784Z,76.46
2022-09-28T14:19:39.135Z,77.63
2022-09-28T14:20:43.611Z,78.26
2022-09-28T14:22:04.109Z,77.41
2022-09-28T14:23:26.208Z,76.89
2022-09-28T14:24:33.468Z,77.72
2022-09-28T14:25:38.327Z,77.97
2022-09-28T14:26:59.281Z,77.64
2022-09-28T14:28:24.201Z,77.99
2022-09-28T14:29:31.988Z,78.56
2022-09-28T14:30:44.939Z,78.28
2022-09-28T14:31:48.712Z,78.36
2022-09-28T14:32:53.875Z,78.73
2022-09-28T14:34:01.869Z,78.15
2022-09-28T14:35:08.095Z,79.41
2022-09-28T14:36:58.202Z,79.46
2022-09-28T14:38:21.611Z,79.87
2022-09-28T14:39:49.700Z,80.20
2022-09-28T14:41:13.258Z,80.66
2022-09-28T14:42:22.298Z,80.99
2022-09-28T14:43:26.431Z,80.73
2022-09-28T14:44:32.154Z,82.04
2022-09-28T14:45:38.034Z,81.85